< < Back
Terminal Aerodrome Forecast


Current Version              Previous Versions:   1  2  3  4  5  6  7  8  9  

Terminal Aerodrome Forecast

822
FTUS44 KMRX 271722
TAFTYS
TAF
KTYS 271722Z 2718/2818 24010KT P6SM SCT040 BKN200
     FM280000 VRB04KT P6SM SCT040 BKN150
     FM281600 VRB04KT P6SM VCTS SCT035CB BKN100=

Latest METAR

894
SAUS80 KWBC 272000 RRA
MTRTYS
METAR KTYS 271953Z 23008G15KT 10SM SCT044 BKN250 28/14 A3019 RMK AO2
SLP211 T02780144


USA.gov is the U.S. government's official web portal to all federal, state and local government web resources and services.